Time;durP1;ratioP1;P1;durP2;ratioP2;P2;SDS_P1;SDS_P2;PMS_P1;PMS_P2;Temp;Humidity;BMP_temperature;BMP_pressure;BME280_temperature;BME280_humidity;BME280_pressure;Samples;Min_cycle;Max_cycle;Signal;HPM_P1;HPM_P2
2022/10/16 00:00:30;;;;;;;6.03;3.10;;;17.00;99.90;;;;;;5090300;28;20494;-74
2022/10/16 00:02:56;;;;;;;6.77;3.23;;;17.10;99.90;;;;;;5082425;28;20915;-73
2022/10/16 00:05:21;;;;;;;5.70;3.43;;;17.10;99.90;;;;;;5085352;28;20199;-74
2022/10/16 00:07:47;;;;;;;5.97;4.23;;;17.20;99.90;;;;;;5084329;28;20192;-75
2022/10/16 00:10:12;;;;;;;5.43;4.43;;;17.10;99.90;;;;;;5083670;28;20577;-73
2022/10/16 00:12:38;;;;;;;6.43;4.40;;;17.10;99.90;;;;;;5083799;28;20207;-72
2022/10/16 00:15:05;;;;;;;5.40;3.60;;;17.00;99.90;;;;;;5088763;28;20176;-72
2022/10/16 00:17:31;;;;;;;4.83;3.20;;;17.00;99.90;;;;;;5085474;28;20199;-73
2022/10/16 00:19:57;;;;;;;3.33;2.50;;;17.00;99.90;;;;;;5089889;28;20924;-73
2022/10/16 00:22:22;;;;;;;6.13;2.67;;;17.00;99.90;;;;;;5086105;28;20623;-73
2022/10/16 00:24:48;;;;;;;2.83;2.27;;;17.00;99.90;;;;;;5079659;28;20310;-73
2022/10/16 00:27:13;;;;;;;3.60;2.67;;;17.10;99.90;;;;;;5087932;28;20180;-74
2022/10/16 00:29:39;;;;;;;4.53;3.03;;;17.00;99.90;;;;;;5088132;28;20278;-73
2022/10/16 00:32:04;;;;;;;5.57;2.73;;;16.90;99.90;;;;;;5080029;28;20648;-73
2022/10/16 00:34:30;;;;;;;2.80;2.53;;;16.90;99.90;;;;;;5087749;28;20695;-75
2022/10/16 00:36:56;;;;;;;5.93;2.90;;;16.90;99.90;;;;;;5088632;28;20561;-74
2022/10/16 00:39:22;;;;;;;6.83;3.07;;;16.90;99.90;;;;;;5082913;28;20422;-75
2022/10/16 00:41:47;;;;;;;8.43;2.70;;;17.00;99.90;;;;;;5080656;28;20298;-73
2022/10/16 00:44:41;;;;;;;2.73;2.47;;;17.00;99.90;;;;;;5073791;28;20246;-74
2022/10/16 00:47:14;;;;;;;8.00;2.67;;;17.00;99.90;;;;;;5080536;28;20184;-73
2022/10/16 00:49:39;;;;;;;4.07;2.43;;;17.00;99.90;;;;;;5081194;28;20426;-73
2022/10/16 00:52:05;;;;;;;4.57;2.37;;;17.10;99.90;;;;;;5089787;28;20466;-73
2022/10/16 00:54:32;;;;;;;3.63;2.20;;;17.10;99.90;;;;;;5081816;28;20180;-73
2022/10/16 00:57:01;;;;;;;3.20;2.27;;;17.10;99.90;;;;;;5081445;28;20199;-74
2022/10/16 00:59:32;;;;;;;8.33;2.50;;;17.20;99.90;;;;;;5088902;28;20522;-71
2022/10/16 01:02:00;;;;;;;7.83;2.27;;;17.20;99.90;;;;;;5085622;28;20478;-72
2022/10/16 01:04:28;;;;;;;7.40;3.00;;;17.20;99.90;;;;;;5089518;28;20414;-74
2022/10/16 01:07:15;;;;;;;5.17;2.67;;;17.60;99.90;;;;;;5087590;28;20524;-75
2022/10/16 01:09:43;;;;;;;5.37;3.37;;;17.30;99.90;;;;;;5081304;28;20730;-73
2022/10/16 01:12:24;;;;;;;4.47;3.03;;;17.30;99.90;;;;;;5083578;28;20534;-74
2022/10/16 01:14:58;;;;;;;3.70;2.43;;;17.20;99.90;;;;;;5084970;28;20429;-73
2022/10/16 01:17:42;;;;;;;4.20;3.60;;;17.20;99.90;;;;;;5085476;28;20418;-72
2022/10/16 01:20:18;;;;;;;11.20;3.80;;;17.20;99.90;;;;;;5075631;28;20429;-73
2022/10/16 01:22:53;;;;;;;5.30;3.13;;;17.20;99.90;;;;;;5089737;28;20481;-76
2022/10/16 01:25:59;;;;;;;15.43;2.60;;;17.20;99.90;;;;;;5088468;28;20428;-74
2022/10/16 01:28:34;;;;;;;8.10;2.80;;;17.20;99.90;;;;;;5077447;28;20425;-73
2022/10/16 01:31:01;;;;;;;4.73;2.60;;;17.20;99.90;;;;;;5084108;28;20594;-75
2022/10/16 01:33:38;;;;;;;6.33;3.57;;;17.20;99.90;;;;;;5081533;28;20453;-73
2022/10/16 01:36:11;;;;;;;5.40;3.70;;;17.10;99.90;;;;;;5084629;28;20421;-73
2022/10/16 01:38:39;;;;;;;9.97;6.60;;;17.10;99.90;;;;;;5079680;28;20430;-72
2022/10/16 01:41:19;;;;;;;12.83;9.23;;;17.10;99.90;;;;;;5088107;28;20517;-73
2022/10/16 01:44:07;;;;;;;15.50;10.20;;;17.10;99.90;;;;;;5085307;28;20434;-73
2022/10/16 01:46:37;;;;;;;8.00;4.27;;;17.10;99.90;;;;;;5083718;28;20513;-73
2022/10/16 01:49:03;;;;;;;6.90;3.20;;;17.10;99.90;;;;;;5080136;28;20465;-73
2022/10/16 01:51:30;;;;;;;6.73;3.13;;;17.10;99.90;;;;;;5085522;28;21133;-73
2022/10/16 01:53:59;;;;;;;4.40;3.17;;;17.10;99.90;;;;;;5080256;28;20985;-73
2022/10/16 01:56:26;;;;;;;9.53;2.77;;;17.10;99.90;;;;;;5076071;28;20457;-74
2022/10/16 01:59:03;;;;;;;4.70;3.20;;;18.90;99.90;;;;;;5086201;28;20473;-73
2022/10/16 02:01:32;;;;;;;11.00;3.50;;;17.20;99.90;;;;;;5089111;28;20837;-75
2022/10/16 02:04:07;;;;;;;6.83;3.37;;;17.30;99.90;;;;;;5084083;28;20426;-73
2022/10/16 02:06:32;;;;;;;4.20;2.87;;;17.40;99.90;;;;;;5085382;28;20406;-72
2022/10/16 02:08:59;;;;;;;10.03;3.30;;;17.30;99.90;;;;;;5082308;28;20429;-72
2022/10/16 02:11:24;;;;;;;7.03;3.30;;;17.40;99.90;;;;;;5092818;28;20195;-73
2022/10/16 02:14:00;;;;;;;6.33;3.50;;;17.40;99.90;;;;;;5088218;28;20429;-76
2022/10/16 02:16:52;;;;;;;10.03;2.80;;;17.40;99.90;;;;;;5086480;28;20512;-76
2022/10/16 02:19:20;;;;;;;5.43;3.23;;;17.40;99.90;;;;;;5083472;28;20490;-73
2022/10/16 02:21:56;;;;;;;5.70;3.47;;;17.30;99.90;;;;;;5092829;28;20935;-74
2022/10/16 02:24:33;;;;;;;4.50;3.47;;;17.30;99.90;;;;;;5086289;28;20429;-74
2022/10/16 02:27:24;;;;;;;6.27;3.53;;;17.30;99.90;;;;;;5091999;28;20931;-74
2022/10/16 02:29:58;;;;;;;8.13;3.80;;;17.20;99.90;;;;;;5087466;28;20426;-73
2022/10/16 02:32:30;;;;;;;4.37;3.70;;;17.30;99.90;;;;;;5072608;28;20541;-74
2022/10/16 02:34:57;;;;;;;7.70;3.40;;;17.50;99.90;;;;;;5072414;28;20414;-74
2022/10/16 02:37:24;;;;;;;7.30;3.27;;;17.30;99.90;;;;;;5072771;28;20407;-74
2022/10/16 02:39:50;;;;;;;6.50;3.10;;;17.20;99.90;;;;;;5071720;28;20730;-74
2022/10/16 02:42:18;;;;;;;8.30;3.27;;;17.20;99.90;;;;;;5082378;28;20420;-73
2022/10/16 02:44:44;;;;;;;7.63;3.00;;;17.10;99.90;;;;;;5081328;28;20513;-73
2022/10/16 02:47:09;;;;;;;4.10;3.13;;;17.10;99.90;;;;;;5099569;28;20494;-74
2022/10/16 02:49:35;;;;;;;4.50;2.90;;;17.00;99.90;;;;;;5109076;28;20609;-74
2022/10/16 02:52:00;;;;;;;5.00;3.10;;;17.30;99.90;;;;;;5112525;28;20199;-73
2022/10/16 02:54:26;;;;;;;4.37;3.50;;;17.00;99.90;;;;;;5102375;28;20164;-76
2022/10/16 02:56:51;;;;;;;8.43;4.27;;;16.90;99.90;;;;;;5086355;28;20541;-74
2022/10/16 02:59:17;;;;;;;6.33;3.40;;;17.00;99.90;;;;;;5091513;28;20669;-72
2022/10/16 03:01:43;;;;;;;3.67;2.90;;;17.00;99.90;;;;;;5090915;28;20200;-74
2022/10/16 03:04:08;;;;;;;4.30;2.77;;;17.00;99.90;;;;;;5090126;28;20184;-73
2022/10/16 03:06:34;;;;;;;2.90;2.60;;;17.00;99.90;;;;;;5092255;28;20453;-74
2022/10/16 03:09:00;;;;;;;5.40;2.50;;;17.00;99.90;;;;;;5087188;28;20274;-77
2022/10/16 03:11:26;;;;;;;4.57;2.37;;;17.10;99.90;;;;;;5085302;28;20215;-74
2022/10/16 03:13:52;;;;;;;2.97;2.67;;;17.10;99.60;;;;;;5089663;28;20182;-73
2022/10/16 03:16:17;;;;;;;5.90;2.67;;;17.20;97.30;;;;;;5091568;28;20481;-76
2022/10/16 03:18:43;;;;;;;3.43;2.33;;;17.20;96.40;;;;;;5097403;28;20255;-75
2022/10/16 03:21:08;;;;;;;6.70;2.60;;;17.20;95.70;;;;;;5090541;28;20316;-73
2022/10/16 03:23:34;;;;;;;5.33;2.43;;;17.20;95.60;;;;;;5089769;28;20542;-75
2022/10/16 03:25:59;;;;;;;6.97;2.60;;;17.20;95.60;;;;;;5083955;28;20206;-74
2022/10/16 03:28:25;;;;;;;6.13;2.60;;;17.20;94.90;;;;;;5091610;28;20239;-73
2022/10/16 03:30:50;;;;;;;5.70;2.50;;;17.20;97.20;;;;;;5088514;28;20568;-74
2022/10/16 03:33:16;;;;;;;7.20;2.80;;;17.20;94.50;;;;;;5091426;28;20195;-73
2022/10/16 03:35:41;;;;;;;7.37;2.87;;;18.00;97.10;;;;;;5084453;28;20175;-73
2022/10/16 03:38:07;;;;;;;3.30;2.47;;;17.20;98.00;;;;;;5087078;28;20186;-73
2022/10/16 03:40:32;;;;;;;3.40;2.20;;;17.20;95.50;;;;;;5088749;28;20212;-75
2022/10/16 03:42:59;;;;;;;3.13;2.60;;;17.20;95.20;;;;;;5088075;28;20258;-73
2022/10/16 03:45:26;;;;;;;5.33;2.27;;;17.30;95.40;;;;;;5082420;28;20279;-74
2022/10/16 03:47:51;;;;;;;8.80;2.40;;;17.10;97.60;;;;;;5093839;28;20442;-74
2022/10/16 03:50:17;;;;;;;5.70;2.43;;;17.10;97.30;;;;;;5090330;28;20450;-74
2022/10/16 03:52:42;;;;;;;5.70;2.40;;;17.10;96.20;;;;;;5085403;28;20572;-73
2022/10/16 03:55:08;;;;;;;3.43;2.43;;;17.40;95.40;;;;;;5081764;28;20549;-74
2022/10/16 03:57:34;;;;;;;2.60;2.40;;;17.20;94.50;;;;;;5091335;28;20308;-75
2022/10/16 03:59:59;;;;;;;2.37;2.17;;;17.20;91.90;;;;;;5084491;28;20191;-73
2022/10/16 04:02:25;;;;;;;9.53;2.63;;;17.20;90.70;;;;;;5090941;28;20168;-74
2022/10/16 04:04:50;;;;;;;3.87;2.13;;;17.30;89.50;;;;;;5084889;28;20179;-74
2022/10/16 04:07:16;;;;;;;2.40;2.07;;;17.30;90.00;;;;;;5091359;28;20178;-73
2022/10/16 04:09:41;;;;;;;8.77;2.60;;;17.40;90.10;;;;;;5084937;28;20183;-73
2022/10/16 04:12:07;;;;;;;8.00;2.53;;;17.40;92.30;;;;;;5085968;28;20390;-74
2022/10/16 04:14:33;;;;;;;6.50;2.77;;;17.40;88.20;;;;;;5079456;28;20261;-76
2022/10/16 04:16:58;;;;;;;8.83;2.50;;;17.30;90.60;;;;;;5090691;28;20178;-74
2022/10/16 04:19:24;;;;;;;7.13;2.70;;;17.30;91.10;;;;;;5087919;28;20175;-73
2022/10/16 04:21:49;;;;;;;5.00;2.10;;;17.30;92.70;;;;;;5090231;28;20210;-73
2022/10/16 04:24:15;;;;;;;5.77;2.57;;;17.30;92.80;;;;;;5084207;28;20183;-75
2022/10/16 04:26:40;;;;;;;4.67;2.30;;;17.30;93.20;;;;;;5088579;28;20176;-73
2022/10/16 04:29:06;;;;;;;5.83;2.30;;;17.20;94.90;;;;;;5085729;28;20199;-73
2022/10/16 04:31:32;;;;;;;5.40;2.63;;;17.20;95.90;;;;;;5090028;28;20580;-74
2022/10/16 04:33:58;;;;;;;7.53;3.20;;;17.20;97.70;;;;;;5085073;28;20418;-74
2022/10/16 04:36:23;;;;;;;8.63;3.77;;;17.20;96.60;;;;;;5078913;28;20600;-73
2022/10/16 04:38:49;;;;;;;6.53;3.00;;;17.20;96.10;;;;;;5083732;28;20541;-73
2022/10/16 04:41:14;;;;;;;4.17;2.83;;;17.10;94.80;;;;;;5089361;28;20188;-74
2022/10/16 04:43:40;;;;;;;9.00;3.50;;;17.10;96.30;;;;;;5087011;28;20232;-74
2022/10/16 04:46:06;;;;;;;6.07;3.10;;;17.10;96.10;;;;;;5085228;28;20297;-75
2022/10/16 04:48:32;;;;;;;8.90;3.30;;;17.10;98.70;;;;;;5083424;28;20227;-74
2022/10/16 04:50:57;;;;;;;7.23;3.00;;;17.00;97.90;;;;;;5090125;28;20673;-73
2022/10/16 04:53:23;;;;;;;3.30;2.60;;;17.00;98.30;;;;;;5081092;28;20192;-73
2022/10/16 04:55:49;;;;;;;2.70;2.47;;;17.10;96.90;;;;;;5083841;28;20176;-74
2022/10/16 04:58:14;;;;;;;4.30;3.00;;;17.10;97.60;;;;;;5088027;28;20171;-74
2022/10/16 05:00:40;;;;;;;5.10;2.43;;;17.00;96.20;;;;;;5084553;28;20207;-73
2022/10/16 05:03:08;;;;;;;10.67;3.30;;;17.10;95.00;;;;;;5088982;28;20180;-73
2022/10/16 05:05:34;;;;;;;3.60;3.20;;;17.00;95.60;;;;;;5083449;28;20202;-73
2022/10/16 05:07:59;;;;;;;5.30;2.30;;;17.20;97.20;;;;;;5081295;28;20483;-73
2022/10/16 05:10:25;;;;;;;5.83;2.70;;;17.00;95.90;;;;;;5086183;28;20453;-73
2022/10/16 05:12:51;;;;;;;3.50;2.50;;;17.00;97.10;;;;;;5080737;28;20204;-75
2022/10/16 05:15:17;;;;;;;4.83;2.33;;;17.40;98.70;;;;;;5086397;28;20665;-73
2022/10/16 05:17:42;;;;;;;3.23;2.00;;;17.00;98.60;;;;;;5098267;28;20167;-73
2022/10/16 05:20:08;;;;;;;4.60;2.20;;;17.00;97.60;;;;;;5084683;28;20473;-75
2022/10/16 05:22:34;;;;;;;3.83;2.17;;;17.00;97.90;;;;;;5089425;28;20180;-75
2022/10/16 05:24:59;;;;;;;5.33;2.13;;;17.00;96.00;;;;;;5077337;28;20234;-73
2022/10/16 05:27:25;;;;;;;7.57;2.43;;;17.10;94.50;;;;;;5089725;28;20699;-74
2022/10/16 05:29:50;;;;;;;8.90;2.80;;;17.10;95.70;;;;;;5083943;28;20195;-76
2022/10/16 05:32:17;;;;;;;4.27;2.30;;;17.10;95.70;;;;;;5075171;28;20578;-73
2022/10/16 05:34:43;;;;;;;9.47;3.50;;;17.00;95.90;;;;;;5083131;28;20259;-73
2022/10/16 05:37:08;;;;;;;11.83;2.90;;;17.00;96.20;;;;;;5081565;28;20479;-73
2022/10/16 05:39:34;;;;;;;5.27;2.67;;;17.00;94.40;;;;;;5084697;28;20438;-73
2022/10/16 05:42:00;;;;;;;7.20;2.20;;;16.90;95.50;;;;;;5076163;28;20176;-76
2022/10/16 05:44:25;;;;;;;5.20;2.30;;;16.90;96.40;;;;;;5085695;28;20512;-77
2022/10/16 05:46:51;;;;;;;4.77;2.43;;;17.00;94.90;;;;;;5091670;28;20429;-78
2022/10/16 05:49:16;;;;;;;4.03;2.10;;;17.00;93.40;;;;;;5080872;28;20184;-77
2022/10/16 05:51:42;;;;;;;4.20;2.10;;;17.20;93.20;;;;;;5091337;28;20211;-77
2022/10/16 05:54:08;;;;;;;2.10;1.90;;;17.20;90.60;;;;;;5086385;28;20592;-77
2022/10/16 05:56:34;;;;;;;4.60;2.23;;;17.20;88.40;;;;;;5089468;28;20180;-77
2022/10/16 05:58:59;;;;;;;4.00;2.10;;;17.20;88.30;;;;;;5085392;28;20428;-77
2022/10/16 06:01:25;;;;;;;3.60;2.10;;;17.20;84.20;;;;;;5086636;28;20593;-77
2022/10/16 06:03:51;;;;;;;2.13;1.83;;;17.30;83.20;;;;;;5085703;28;20210;-78
2022/10/16 06:06:20;;;;;;;5.53;2.57;;;17.30;85.00;;;;;;5081034;28;20176;-77
2022/10/16 06:08:47;;;;;;;2.17;1.90;;;17.40;82.70;;;;;;5086269;28;20858;-77
2022/10/16 06:11:18;;;;;;;3.23;1.80;;;17.40;79.10;;;;;;5080113;28;20503;-76
2022/10/16 06:13:45;;;;;;;5.93;2.67;;;17.30;77.70;;;;;;5085885;28;20458;-77
2022/10/16 06:16:12;;;;;;;4.00;2.00;;;17.30;76.00;;;;;;5085311;28;20449;-77
2022/10/16 06:18:38;;;;;;;17.37;2.93;;;17.40;75.20;;;;;;5077381;28;20521;-77
2022/10/16 06:21:09;;;;;;;3.97;2.37;;;17.30;85.50;;;;;;5082439;28;20549;-77
2022/10/16 06:23:35;;;;;;;6.50;2.40;;;17.10;92.90;;;;;;5081141;28;20943;-77
2022/10/16 06:26:13;;;;;;;8.97;4.47;;;17.00;96.90;;;;;;5087095;28;20441;-77
2022/10/16 06:28:39;;;;;;;17.23;8.60;;;16.90;99.20;;;;;;5082998;28;20200;-77
2022/10/16 06:31:06;;;;;;;15.27;7.57;;;16.90;99.90;;;;;;5086346;28;20522;-77
2022/10/16 06:33:32;;;;;;;9.27;3.97;;;16.80;99.90;;;;;;5083742;28;20508;-77
2022/10/16 06:36:06;;;;;;;5.60;2.43;;;16.80;99.90;;;;;;5083784;28;20958;-77
2022/10/16 06:38:32;;;;;;;3.20;2.67;;;16.70;99.90;;;;;;5085196;28;20716;-77
2022/10/16 06:40:58;;;;;;;3.63;2.57;;;16.70;99.90;;;;;;5088933;28;20564;-77
2022/10/16 06:43:24;;;;;;;3.57;2.70;;;16.70;99.90;;;;;;5087074;28;20928;-77
2022/10/16 06:45:53;;;;;;;5.47;2.63;;;16.70;99.90;;;;;;5085344;28;20483;-78
2022/10/16 06:48:20;;;;;;;5.03;3.70;;;16.70;99.90;;;;;;5089235;28;20847;-77
2022/10/16 06:51:01;;;;;;;5.90;4.00;;;16.70;99.90;;;;;;5085560;28;20449;-77
2022/10/16 06:53:28;;;;;;;5.53;3.87;;;16.80;99.90;;;;;;5083124;28;20457;-78
2022/10/16 06:55:54;;;;;;;8.17;4.70;;;16.70;99.90;;;;;;5084921;28;20424;-77
2022/10/16 06:58:19;;;;;;;6.77;5.17;;;16.80;99.90;;;;;;5088796;28;20509;-77
2022/10/16 07:00:45;;;;;;;7.77;5.47;;;16.90;99.90;;;;;;5087382;28;20299;-76
2022/10/16 07:03:11;;;;;;;8.17;5.27;;;16.90;99.90;;;;;;5089766;28;20638;-77
2022/10/16 07:05:41;;;;;;;4.30;2.70;;;17.00;99.90;;;;;;5090188;28;20190;-76
2022/10/16 07:08:06;;;;;;;5.07;2.40;;;17.10;99.90;;;;;;5083288;28;20206;-76
2022/10/16 07:10:33;;;;;;;8.47;3.30;;;17.10;99.90;;;;;;5089073;28;20991;-73
2022/10/16 07:12:58;;;;;;;4.53;2.73;;;17.20;99.90;;;;;;5088867;28;20678;-76
2022/10/16 07:15:25;;;;;;;5.13;3.20;;;17.90;99.90;;;;;;5084145;28;20467;-74
2022/10/16 07:17:50;;;;;;;4.87;3.50;;;17.40;99.90;;;;;;5084554;28;20473;-77
2022/10/16 07:20:16;;;;;;;3.90;3.10;;;17.50;99.90;;;;;;5081935;28;20443;-73
2022/10/16 07:22:42;;;;;;;4.33;3.53;;;17.50;99.90;;;;;;5089620;28;20598;-74
2022/10/16 07:25:07;;;;;;;9.17;3.23;;;17.60;99.90;;;;;;5085741;28;20179;-75
2022/10/16 07:27:33;;;;;;;3.77;2.93;;;17.70;99.90;;;;;;5079308;28;20313;-77
2022/10/16 07:29:59;;;;;;;7.20;4.30;;;17.80;99.90;;;;;;5089093;28;20216;-77
2022/10/16 07:32:25;;;;;;;5.20;3.60;;;17.90;99.90;;;;;;5085778;28;20841;-75
2022/10/16 07:34:51;;;;;;;6.27;3.00;;;18.10;99.90;;;;;;5081024;28;20642;-75
2022/10/16 07:37:17;;;;;;;4.43;3.63;;;18.00;99.90;;;;;;5087865;28;20474;-76
2022/10/16 07:39:43;;;;;;;7.00;4.03;;;18.10;99.90;;;;;;5076495;28;20955;-75
2022/10/16 07:42:08;;;;;;;7.30;3.80;;;18.10;99.90;;;;;;5087058;28;20190;-75
2022/10/16 07:44:34;;;;;;;4.40;3.80;;;18.10;99.90;;;;;;5089636;28;20188;-74
2022/10/16 07:46:59;;;;;;;5.10;3.10;;;18.20;99.90;;;;;;5086440;28;20669;-74
2022/10/16 07:49:25;;;;;;;4.30;2.70;;;18.40;99.90;;;;;;5082088;28;20266;-74
2022/10/16 07:51:51;;;;;;;4.53;3.17;;;18.50;94.20;;;;;;5082322;28;20215;-76
2022/10/16 07:54:16;;;;;;;3.73;2.70;;;18.60;89.50;;;;;;5087267;28;20195;-73
2022/10/16 07:56:42;;;;;;;3.13;2.83;;;18.70;90.50;;;;;;5084406;28;20198;-74
2022/10/16 07:59:07;;;;;;;3.43;2.93;;;18.80;86.30;;;;;;5082296;28;20180;-75
2022/10/16 08:01:33;;;;;;;4.77;2.90;;;18.90;84.50;;;;;;5086543;28;20229;-74
2022/10/16 08:03:58;;;;;;;4.67;2.50;;;18.90;89.10;;;;;;5083623;28;20224;-74
2022/10/16 08:06:24;;;;;;;5.77;2.27;;;18.90;75.80;;;;;;5088428;28;20176;-74
2022/10/16 08:08:50;;;;;;;3.93;2.50;;;18.80;69.00;;;;;;5084318;28;20191;-75
2022/10/16 08:11:15;;;;;;;13.80;3.33;;;18.90;79.10;;;;;;5081257;28;20196;-75
2022/10/16 08:13:41;;;;;;;5.30;2.40;;;19.00;58.20;;;;;;5084709;28;20207;-74
2022/10/16 08:16:08;;;;;;;11.47;4.87;;;19.20;70.80;;;;;;5081809;28;20172;-74
2022/10/16 08:18:38;;;;;;;7.47;3.10;;;19.30;70.70;;;;;;5086516;28;20180;-74
2022/10/16 08:21:06;;;;;;;8.30;3.17;;;19.40;55.80;;;;;;5086741;28;20789;-77
2022/10/16 08:23:33;;;;;;;6.33;2.97;;;19.30;59.10;;;;;;5082800;28;20446;-74
2022/10/16 08:26:04;;;;;;;3.90;2.30;;;19.20;62.20;;;;;;5081849;28;20453;-75
2022/10/16 08:28:30;;;;;;;3.37;2.03;;;19.20;58.50;;;;;;5086303;28;20437;-75
2022/10/16 08:30:56;;;;;;;3.63;2.70;;;19.10;52.90;;;;;;5079142;28;20449;-73
2022/10/16 08:33:22;;;;;;;3.87;2.80;;;19.00;56.30;;;;;;5081293;28;20333;-74
2022/10/16 08:35:54;;;;;;;4.20;3.03;;;18.90;70.40;;;;;;5087636;28;20815;-76
2022/10/16 08:38:20;;;;;;;4.43;2.73;;;19.00;69.60;;;;;;5082100;28;20183;-74
2022/10/16 08:40:46;;;;;;;3.97;2.70;;;19.00;67.20;;;;;;5079494;28;20458;-75
2022/10/16 08:43:34;;;;;;;3.77;2.67;;;19.10;67.10;;;;;;5078865;28;20423;-72
2022/10/16 08:46:50;;;;;;;5.67;2.40;;;19.20;55.00;;;;;;5086452;28;20429;-76
2022/10/16 08:49:16;;;;;;;4.17;2.50;;;19.30;65.90;;;;;;5076048;28;20726;-75
2022/10/16 08:51:42;;;;;;;5.50;2.90;;;19.40;46.00;;;;;;5078892;28;20453;-75
2022/10/16 08:54:27;;;;;;;10.30;2.50;;;19.40;46.20;;;;;;5082331;28;20863;-74
2022/10/16 08:56:55;;;;;;;3.70;3.10;;;19.50;47.50;;;;;;5089208;28;20452;-77
2022/10/16 08:59:21;;;;;;;4.07;2.53;;;19.70;52.20;;;;;;5082568;28;20425;-75
2022/10/16 09:01:50;;;;;;;5.70;3.67;;;19.90;46.40;;;;;;5081716;28;20474;-76
2022/10/16 09:04:46;;;;;;;4.10;2.57;;;20.20;46.60;;;;;;5082306;28;20262;-75
2022/10/16 09:07:42;;;;;;;4.40;2.23;;;20.70;40.50;;;;;;5083578;28;20422;-73
2022/10/16 09:10:15;;;;;;;7.33;2.20;;;21.30;23.70;;;;;;5085022;28;20446;-78
2022/10/16 09:12:51;;;;;;;4.70;2.10;;;22.10;32.90;;;;;;5082325;28;20469;-74
2022/10/16 09:15:39;;;;;;;5.33;2.10;;;23.50;9.50;;;;;;5085317;28;20434;-75
2022/10/16 09:18:27;;;;;;;5.00;2.20;;;24.80;1.00;;;;;;5080257;28;20417;-75
2022/10/16 09:21:26;;;;;;;8.33;2.13;;;24.80;1.00;;;;;;5087316;28;20811;-77
2022/10/16 09:23:53;;;;;;;3.53;2.17;;;24.30;1.00;;;;;;5089593;28;20421;-76
2022/10/16 09:26:21;;;;;;;9.83;2.50;;;23.90;1.00;;;;;;5092628;28;20592;-75
2022/10/16 09:28:47;;;;;;;2.97;1.67;;;23.70;1.00;;;;;;5079502;28;20425;-74
2022/10/16 09:31:17;;;;;;;5.87;2.20;;;23.70;1.00;;;;;;5088506;28;20436;-75
2022/10/16 09:33:45;;;;;;;9.77;2.13;;;23.70;1.00;;;;;;5087869;28;20285;-75
2022/10/16 09:36:12;;;;;;;8.50;2.03;;;23.80;1.00;;;;;;5086951;28;20428;-73
2022/10/16 09:38:38;;;;;;;8.60;2.40;;;24.00;1.00;;;;;;5082947;28;20793;-75
2022/10/16 09:41:20;;;;;;;10.60;2.27;;;23.90;1.00;;;;;;5088497;28;20475;-75
2022/10/16 09:43:52;;;;;;;5.80;2.17;;;23.80;1.00;;;;;;5081530;28;20570;-77
2022/10/16 09:46:28;;;;;;;5.13;2.10;;;23.60;1.00;;;;;;5091358;28;20408;-74
2022/10/16 09:48:57;;;;;;;8.03;1.97;;;23.70;1.00;;;;;;5096931;28;20463;-74
2022/10/16 09:51:27;;;;;;;5.70;2.17;;;23.80;1.00;;;;;;5086794;28;20441;-75
2022/10/16 09:54:16;;;;;;;6.10;1.80;;;23.80;1.00;;;;;;5085389;28;20444;-78
2022/10/16 09:56:42;;;;;;;4.60;2.10;;;23.80;1.00;;;;;;5084239;28;20440;-74
2022/10/16 09:59:14;;;;;;;8.57;2.20;;;23.60;1.00;;;;;;5088266;28;20405;-73
2022/10/16 10:01:47;;;;;;;4.87;1.90;;;23.50;1.00;;;;;;5087152;28;20199;-78
2022/10/16 10:04:12;;;;;;;4.03;2.30;;;23.60;1.00;;;;;;5084803;28;20425;-74
2022/10/16 10:06:50;;;;;;;4.00;2.13;;;23.70;1.00;;;;;;5088314;28;20439;-76
2022/10/16 10:09:21;;;;;;;7.03;2.07;;;24.40;1.00;;;;;;5076146;28;20248;-73
2022/10/16 10:11:48;;;;;;;5.27;2.10;;;24.90;1.00;;;;;;5087421;28;20516;-74
2022/10/16 10:14:28;;;;;;;4.00;2.37;;;25.30;1.00;;;;;;5086055;28;20978;-75
2022/10/16 10:17:05;;;;;;;3.97;2.20;;;26.00;1.00;;;;;;5084758;28;20470;-75
2022/10/16 10:19:43;;;;;;;2.90;2.10;;;26.60;1.00;;;;;;5082661;28;20433;-74
2022/10/16 10:22:30;;;;;;;7.13;2.40;;;27.80;1.00;;;;;;5081359;28;20891;-76
2022/10/16 10:25:19;;;;;;;8.13;1.97;;;29.90;1.00;;;;;;5086273;28;20509;-75
2022/10/16 10:28:03;;;;;;;6.37;2.43;;;31.20;1.00;;;;;;5082281;28;20428;-74
2022/10/16 10:30:47;;;;;;;5.10;2.60;;;31.40;1.00;;;;;;5090127;28;20207;-76
2022/10/16 10:33:52;;;;;;;4.70;2.20;;;30.20;1.00;;;;;;5082127;28;20206;-75
2022/10/16 10:36:36;;;;;;;8.37;2.20;;;28.60;1.00;;;;;;5068687;28;20190;-75
2022/10/16 10:39:14;;;;;;;8.43;2.50;;;28.80;1.00;;;;;;5070844;28;20175;-76
2022/10/16 10:42:08;;;;;;;3.47;2.27;;;30.50;1.00;;;;;;5089359;28;20222;-75
2022/10/16 10:44:34;;;;;;;9.48;2.10;;;32.30;1.00;;;;;;5089467;28;20184;-78
2022/10/16 10:47:15;;;;;;;4.50;1.90;;;34.60;1.00;;;;;;5091155;28;20182;-77
2022/10/16 10:49:50;;;;;;;5.78;2.05;;;34.90;1.00;;;;;;5080509;28;20190;-78
2022/10/16 10:52:33;;;;;;;3.83;1.80;;;35.10;1.00;;;;;;5090230;28;20610;-76
2022/10/16 10:55:13;;;;;;;4.05;2.05;;;36.00;1.00;;;;;;5080723;28;20250;-78
2022/10/16 10:58:14;;;;;;;9.50;2.00;;;36.20;1.00;;;;;;5086350;28;20179;-76
2022/10/16 11:01:01;;;;;;;6.10;2.00;;;37.00;1.00;;;;;;5088289;28;20225;-78
2022/10/16 11:03:39;;;;;;;5.20;1.95;;;36.90;1.00;;;;;;5092011;28;20262;-78
2022/10/16 11:06:10;;;;;;;2.85;1.80;;;37.00;1.00;;;;;;5079122;28;20706;-76
2022/10/16 11:08:40;;;;;;;3.03;1.77;;;38.70;1.00;;;;;;5091798;28;20224;-76
2022/10/16 11:11:28;;;;;;;5.70;2.00;;;39.10;1.00;;;;;;5081340;28;20184;-78
2022/10/16 11:14:14;;;;;;;5.20;1.98;;;38.20;1.00;;;;;;5091598;28;20460;-77
2022/10/16 11:17:03;;;;;;;5.03;2.00;;;37.70;1.00;;;;;;5088098;28;20183;-77
2022/10/16 11:19:48;;;;;;;5.32;1.80;;;37.30;1.00;;;;;;5091645;28;20175;-78
2022/10/16 11:22:37;;;;;;;3.10;2.00;;;37.10;1.00;;;;;;5086077;28;20178;-77
2022/10/16 11:25:22;;;;;;;5.45;2.05;;;36.70;1.00;;;;;;5082755;28;20642;-76
2022/10/16 11:27:50;;;;;;;2.75;1.73;;;36.10;1.00;;;;;;5091713;28;20175;-77
2022/10/16 11:30:25;;;;;;;7.03;1.70;;;36.90;1.00;;;;;;5081795;28;20261;-76
2022/10/16 11:33:12;;;;;;;5.60;1.92;;;37.10;1.00;;;;;;5090344;28;20234;-76
2022/10/16 11:36:06;;;;;;;4.35;2.20;;;38.80;1.00;;;;;;5085517;28;20186;-77
2022/10/16 11:38:59;;;;;;;3.75;2.30;;;40.10;1.00;;;;;;5089388;28;20214;-78
2022/10/16 11:41:39;;;;;;;3.58;2.20;;;40.50;1.00;;;;;;5085271;28;20195;-76
2022/10/16 11:44:26;;;;;;;3.53;1.83;;;40.30;1.00;;;;;;5070759;28;20171;-76
2022/10/16 11:47:20;;;;;;;4.15;2.08;;;37.20;1.00;;;;;;5075889;28;20187;-76
2022/10/16 11:49:49;;;;;;;4.80;2.13;;;32.00;1.00;;;;;;5085370;28;20233;-75
2022/10/16 11:52:51;;;;;;;8.75;2.30;;;32.00;1.00;;;;;;5089223;28;20203;-75
2022/10/16 11:55:31;;;;;;;5.68;2.17;;;31.20;1.00;;;;;;5084350;28;20174;-76
2022/10/16 11:58:23;;;;;;;5.57;2.13;;;30.80;1.00;;;;;;5090891;28;20170;-77
2022/10/16 12:01:04;;;;;;;9.13;1.90;;;29.60;1.00;;;;;;5066514;28;20706;-76
2022/10/16 12:03:41;;;;;;;4.20;2.40;;;29.60;1.00;;;;;;5091486;28;20175;-75
2022/10/16 12:06:19;;;;;;;5.27;3.03;;;29.40;1.00;;;;;;5081919;28;20182;-74
2022/10/16 12:08:45;;;;;;;9.93;2.50;;;30.20;1.00;;;;;;5087206;28;20175;-75
2022/10/16 12:11:26;;;;;;;5.28;2.38;;;31.60;1.00;;;;;;5084951;28;20206;-75
2022/10/16 12:14:03;;;;;;;3.50;2.00;;;31.50;1.00;;;;;;5084967;28;20542;-77
2022/10/16 12:16:28;;;;;;;5.30;2.10;;;30.90;1.00;;;;;;5089644;28;20345;-74
2022/10/16 12:19:15;;;;;;;7.53;2.07;;;30.30;1.00;;;;;;5081120;28;20213;-75
2022/10/16 12:21:42;;;;;;;5.03;2.20;;;30.80;1.00;;;;;;5090604;28;20323;-76
2022/10/16 12:24:50;;;;;;;4.73;2.60;;;29.40;1.00;;;;;;5082282;28;20205;-76
2022/10/16 12:27:30;;;;;;;4.07;2.50;;;28.40;1.00;;;;;;5084552;28;20218;-76
2022/10/16 12:29:59;;;;;;;3.53;2.40;;;27.50;1.00;;;;;;5083743;28;20681;-76
2022/10/16 12:32:36;;;;;;;7.23;4.00;;;27.20;1.00;;;;;;5085659;28;20517;-75
2022/10/16 12:35:04;;;;;;;5.07;2.77;;;27.10;1.00;;;;;;5077603;28;20800;-76
2022/10/16 12:37:40;;;;;;;9.30;5.10;;;26.70;1.00;;;;;;5089905;28;20421;-76
2022/10/16 12:40:15;;;;;;;4.70;2.63;;;27.10;1.00;;;;;;5083953;28;20512;-75
2022/10/16 12:42:41;;;;;;;4.80;2.40;;;28.00;1.00;;;;;;5085042;28;20440;-75
2022/10/16 12:45:33;;;;;;;5.77;2.63;;;28.40;1.00;;;;;;5076058;28;20418;-77
2022/10/16 12:48:02;;;;;;;3.43;2.23;;;29.90;1.00;;;;;;5085859;28;20237;-76
2022/10/16 12:50:35;;;;;;;10.60;2.53;;;31.10;1.00;;;;;;5085706;28;20200;-77
2022/10/16 12:53:02;;;;;;;5.67;2.83;;;29.60;1.00;;;;;;5088643;28;20195;-76
2022/10/16 12:55:38;;;;;;;3.93;2.10;;;29.10;1.00;;;;;;5084298;28;20186;-78
2022/10/16 12:58:24;;;;;;;5.07;2.40;;;27.90;1.00;;;;;;5085340;28;20413;-78
2022/10/16 13:01:05;;;;;;;3.60;2.37;;;27.20;1.00;;;;;;5085314;28;20537;-75
2022/10/16 13:04:12;;;;;;;10.80;2.60;;;26.70;1.00;;;;;;5090204;28;20408;-76
2022/10/16 13:07:16;;;;;;;6.77;2.23;;;27.00;1.00;;;;;;5075808;28;20444;-75
2022/10/16 13:10:06;;;;;;;3.83;2.27;;;26.80;1.00;;;;;;5086339;28;20452;-75